Time;durP1;ratioP1;P1;durP2;ratioP2;P2;SDS_P1;SDS_P2;PMS_P1;PMS_P2;Temp;Humidity;BMP_temperature;BMP_pressure;BME280_temperature;BME280_humidity;BME280_pressure;Samples;Min_cycle;Max_cycle;Signal;HPM_P1;HPM_P2
2022/01/05 00:00:59;;;;;;;1.30;0.77;;;;;;;-141.59;100.00;61776.25;5027707;28;20266;-89
2022/01/05 00:03:26;;;;;;;0.47;0.47;;;;;;;-141.59;100.00;61776.25;5043491;28;20221;-90
2022/01/05 00:05:53;;;;;;;0.60;0.57;;;;;;;-141.59;100.00;61776.25;5036183;28;20226;-90
2022/01/05 00:08:24;;;;;;;2.60;0.50;;;;;;;-141.59;100.00;61776.25;5024967;28;20205;-89
2022/01/05 00:10:52;;;;;;;0.40;0.40;;;;;;;-141.59;100.00;61776.25;5029962;28;20215;-89
2022/01/05 00:13:21;;;;;;;0.50;0.50;;;;;;;-141.59;100.00;61776.25;5028813;28;20230;-88
2022/01/05 00:15:49;;;;;;;0.40;0.40;;;;;;;-141.59;100.00;61776.25;5019857;28;20206;-90
2022/01/05 00:18:16;;;;;;;0.40;0.40;;;;;;;-141.59;100.00;61776.25;5042697;28;20211;-88
2022/01/05 00:20:43;;;;;;;0.40;0.40;;;;;;;-141.59;100.00;61776.25;5038618;28;20229;-89
2022/01/05 00:23:10;;;;;;;0.40;0.40;;;;;;;-141.59;100.00;61776.25;5061020;28;20202;-89
2022/01/05 00:25:37;;;;;;;0.50;0.50;;;;;;;-141.59;100.00;61776.25;5057276;28;20294;-88
2022/01/05 00:28:05;;;;;;;0.43;0.40;;;;;;;-141.59;100.00;61776.25;5030649;28;20218;-89
2022/01/05 00:30:34;;;;;;;0.40;0.40;;;;;;;-141.59;100.00;61776.25;5034689;28;20297;-88
2022/01/05 00:33:01;;;;;;;0.50;0.50;;;;;;;-141.59;100.00;61776.25;5044277;28;20206;-89
2022/01/05 00:35:28;;;;;;;0.37;0.37;;;;;;;-141.59;100.00;61776.25;5028850;28;20206;-89
2022/01/05 00:37:56;;;;;;;0.40;0.40;;;;;;;-141.59;100.00;61776.25;5045688;28;21251;-88
2022/01/05 00:40:23;;;;;;;0.40;0.40;;;;;;;-141.59;100.00;61776.25;5058779;28;20210;-89
2022/01/05 00:42:50;;;;;;;0.40;0.40;;;;;;;-141.59;100.00;61776.25;5053809;28;20557;-88
2022/01/05 00:45:17;;;;;;;0.80;0.50;;;;;;;-141.59;100.00;61776.25;5027948;28;20213;-90
2022/01/05 00:47:45;;;;;;;0.40;0.40;;;;;;;-141.59;100.00;61776.25;5055582;28;20303;-89
2022/01/05 00:50:12;;;;;;;0.40;0.40;;;;;;;-141.59;100.00;61776.25;5060104;28;20217;-89
2022/01/05 00:52:39;;;;;;;0.50;0.50;;;;;;;-141.59;100.00;61776.25;5056177;28;20202;-89
2022/01/05 00:55:07;;;;;;;0.40;0.40;;;;;;;-141.59;100.00;61776.25;5051559;28;20206;-88
2022/01/05 00:57:35;;;;;;;0.50;0.50;;;;;;;-141.59;100.00;61776.25;5050323;28;20286;-89
2022/01/05 01:00:02;;;;;;;0.77;0.47;;;;;;;-141.59;100.00;61776.25;5028720;28;20210;-89
2022/01/05 01:02:29;;;;;;;0.70;0.60;;;;;;;-141.59;100.00;61776.25;5047402;28;20230;-89
2022/01/05 01:04:57;;;;;;;0.60;0.60;;;;;;;-141.59;100.00;61776.25;5021997;28;20210;-89
2022/01/05 01:07:24;;;;;;;0.53;0.53;;;;;;;-141.59;100.00;61776.25;5035522;28;20227;-88
2022/01/05 01:09:51;;;;;;;0.43;0.43;;;;;;;-141.59;100.00;61776.25;5049799;28;20249;-89
2022/01/05 01:12:18;;;;;;;0.50;0.50;;;;;;;-141.59;100.00;61776.25;5024252;28;20199;-88
2022/01/05 01:14:46;;;;;;;0.70;0.60;;;;;;;-141.59;100.00;61776.25;5057923;28;20202;-88
2022/01/05 01:17:13;;;;;;;0.50;0.50;;;;;;;-141.59;100.00;61776.25;5024734;28;20210;-88
2022/01/05 01:19:40;;;;;;;0.40;0.40;;;;;;;-141.59;100.00;61776.25;5052603;28;20240;-88
2022/01/05 01:22:09;;;;;;;0.33;0.33;;;;;;;-141.59;100.00;61776.25;5017897;28;20206;-87
2022/01/05 01:24:36;;;;;;;0.93;0.60;;;;;;;-141.59;100.00;61776.25;5034085;28;20198;-88
2022/01/05 01:27:05;;;;;;;0.40;0.40;;;;;;;-141.59;100.00;61776.25;5058140;28;20275;-88
2022/01/05 01:29:32;;;;;;;0.73;0.70;;;;;;;-141.59;100.00;61776.25;5059737;28;20234;-87
2022/01/05 01:31:59;;;;;;;0.50;0.50;;;;;;;-141.59;100.00;61776.25;5052683;28;20206;-88
2022/01/05 01:34:26;;;;;;;1.23;0.60;;;;;;;-141.59;100.00;61776.25;5054585;28;20299;-87
2022/01/05 01:36:53;;;;;;;0.87;0.60;;;;;;;-141.59;100.00;61776.25;5025588;28;20198;-87
2022/01/05 01:39:22;;;;;;;1.40;0.50;;;;;;;-141.59;100.00;61776.25;5028096;28;20226;-88
2022/01/05 01:41:49;;;;;;;0.43;0.43;;;;;;;-141.59;100.00;61776.25;5066326;28;20279;-88
2022/01/05 01:44:17;;;;;;;0.73;0.60;;;;;;;-141.59;100.00;61776.25;5038937;28;20272;-87
2022/01/05 01:46:44;;;;;;;0.60;0.60;;;;;;;-141.59;100.00;61776.25;5025989;28;20214;-88
2022/01/05 01:49:11;;;;;;;1.20;0.60;;;;;;;-141.59;100.00;61776.25;5026858;28;20211;-87
2022/01/05 01:51:38;;;;;;;0.50;0.50;;;;;;;-141.59;100.00;61776.25;5052045;28;20210;-87
2022/01/05 01:54:07;;;;;;;0.60;0.60;;;;;;;-141.59;100.00;61776.25;5034907;28;20198;-87
2022/01/05 01:56:36;;;;;;;0.40;0.40;;;;;;;-141.59;100.00;61776.25;5042774;28;20229;-87
2022/01/05 01:59:04;;;;;;;0.40;0.40;;;;;;;-141.59;100.00;61776.25;5024934;28;20211;-86
2022/01/05 02:01:31;;;;;;;0.60;0.60;;;;;;;-141.59;100.00;61776.25;5038697;28;20241;-87
2022/01/05 02:03:58;;;;;;;0.50;0.50;;;;;;;-141.59;100.00;61776.25;5027501;28;20427;-87
2022/01/05 02:06:25;;;;;;;0.40;0.40;;;;;;;-141.59;100.00;61776.25;5026581;28;20213;-86
2022/01/05 02:08:53;;;;;;;0.50;0.50;;;;;;;-141.59;100.00;61776.25;5047400;28;20235;-87
2022/01/05 02:11:20;;;;;;;0.50;0.50;;;;;;;-141.59;100.00;61776.25;5032533;28;20208;-87
2022/01/05 02:13:49;;;;;;;0.50;0.50;;;;;;;-141.59;100.00;61776.25;5027845;28;20275;-88
2022/01/05 02:16:21;;;;;;;0.50;0.50;;;;;;;-141.59;100.00;61776.25;5067777;28;20209;-87
2022/01/05 02:19:00;;;;;;;0.93;0.50;;;;;;;-141.59;100.00;61776.25;5033180;28;20206;-87
2022/01/05 02:21:31;;;;;;;1.90;0.60;;;;;;;-141.59;100.00;61776.25;5066188;28;20207;-87
2022/01/05 02:23:59;;;;;;;0.40;0.40;;;;;;;-141.59;100.00;61776.25;5045265;28;20325;-87
2022/01/05 02:26:26;;;;;;;0.47;0.47;;;;;;;-141.59;100.00;61776.25;5064062;28;20201;-87
2022/01/05 02:28:53;;;;;;;0.40;0.40;;;;;;;-141.59;100.00;61776.25;5030515;28;20248;-87
2022/01/05 02:31:21;;;;;;;0.60;0.60;;;;;;;-141.59;100.00;61776.25;5040681;28;20233;-87
2022/01/05 02:33:48;;;;;;;0.40;0.40;;;;;;;-141.59;100.00;61776.25;5052005;28;20202;-87
2022/01/05 02:36:18;;;;;;;0.50;0.50;;;;;;;-141.59;100.00;61776.25;5063587;28;20297;-88
2022/01/05 02:38:48;;;;;;;0.50;0.50;;;;;;;-141.59;100.00;61776.25;5051100;28;20226;-87
2022/01/05 02:41:15;;;;;;;0.50;0.50;;;;;;;-141.59;100.00;61776.25;5059012;28;20203;-87
2022/01/05 02:43:44;;;;;;;0.40;0.40;;;;;;;-141.59;100.00;61776.25;5021642;28;20210;-88
2022/01/05 02:46:13;;;;;;;0.30;0.30;;;;;;;-141.59;100.00;61776.25;5050513;28;20264;-88
2022/01/05 02:48:41;;;;;;;0.50;0.50;;;;;;;-141.59;100.00;61776.25;5020355;28;20249;-87
2022/01/05 02:51:08;;;;;;;0.57;0.57;;;;;;;-141.59;100.00;61776.25;5036854;28;20209;-87
2022/01/05 02:53:36;;;;;;;0.40;0.40;;;;;;;-141.59;100.00;61776.25;5036478;28;20304;-88
2022/01/05 02:56:05;;;;;;;0.50;0.50;;;;;;;-141.59;100.00;61776.25;5029259;28;20288;-87
2022/01/05 02:58:32;;;;;;;0.50;0.50;;;;;;;-141.59;100.00;61776.25;5026110;28;20263;-89
2022/01/05 03:01:00;;;;;;;0.60;0.60;;;;;;;-141.59;100.00;61776.25;5062887;28;20249;-87
2022/01/05 03:03:27;;;;;;;0.50;0.50;;;;;;;-141.59;100.00;61776.25;5061821;28;20213;-88
2022/01/05 03:05:54;;;;;;;0.63;0.63;;;;;;;-141.59;100.00;61776.25;5059682;28;20235;-88
2022/01/05 03:08:21;;;;;;;0.80;0.80;;;;;;;-141.59;100.00;61776.25;5030044;28;20222;-88
2022/01/05 03:10:49;;;;;;;0.50;0.50;;;;;;;-141.59;100.00;61776.25;5057744;28;20210;-88
2022/01/05 03:13:18;;;;;;;0.50;0.50;;;;;;;-141.59;100.00;61776.25;5023049;28;20199;-88
2022/01/05 03:15:45;;;;;;;0.60;0.60;;;;;;;-141.59;100.00;61776.25;5034334;28;20202;-88
2022/01/05 03:18:12;;;;;;;0.70;0.70;;;;;;;-141.59;100.00;61776.25;5033078;28;20202;-88
2022/01/05 03:20:39;;;;;;;0.60;0.60;;;;;;;-141.59;100.00;61776.25;5043229;28;20297;-88
2022/01/05 03:23:07;;;;;;;0.50;0.50;;;;;;;-141.59;100.00;61776.25;5065045;28;20295;-88
2022/01/05 03:25:35;;;;;;;0.50;0.50;;;;;;;-141.59;100.00;61776.25;5070941;28;20329;-87
2022/01/05 03:28:02;;;;;;;0.83;0.63;;;;;;;-141.59;100.00;61776.25;5014588;28;20250;-88
2022/01/05 03:30:34;;;;;;;0.70;0.63;;;;;;;-141.59;100.00;61776.25;5029501;28;20203;-89
2022/01/05 03:35:46;;;;;;;0.60;0.60;;;;;;;-141.59;100.00;61776.25;5044378;28;20260;-89
2022/01/05 03:38:15;;;;;;;0.60;0.60;;;;;;;-141.59;100.00;61776.25;5022656;28;20280;-88
2022/01/05 03:40:43;;;;;;;0.50;0.50;;;;;;;-141.59;100.00;61776.25;5035152;28;20217;-88
2022/01/05 03:43:10;;;;;;;0.70;0.70;;;;;;;-141.59;100.00;61776.25;5059305;28;20202;-88
2022/01/05 03:45:39;;;;;;;0.60;0.60;;;;;;;-141.59;100.00;61776.25;5026022;28;20202;-88
2022/01/05 03:48:09;;;;;;;0.50;0.50;;;;;;;-141.59;100.00;61776.25;5028993;28;20222;-88
2022/01/05 03:50:38;;;;;;;1.33;0.60;;;;;;;-141.59;100.00;61776.25;5058756;28;20232;-88
2022/01/05 03:53:05;;;;;;;0.53;0.53;;;;;;;-141.59;100.00;61776.25;5035584;28;20340;-89
2022/01/05 03:55:33;;;;;;;0.50;0.50;;;;;;;-141.59;100.00;61776.25;5036489;28;20227;-89
2022/01/05 03:58:01;;;;;;;0.50;0.50;;;;;;;-141.59;100.00;61776.25;5033684;28;20213;-90
2022/01/05 04:00:30;;;;;;;0.50;0.50;;;;;;;-141.59;100.00;61776.25;5041477;28;20215;-88
2022/01/05 04:03:00;;;;;;;0.50;0.50;;;;;;;-141.59;100.00;61776.25;5024085;28;20217;-88
2022/01/05 04:05:28;;;;;;;0.50;0.50;;;;;;;-141.59;100.00;61776.25;5028623;28;20228;-88
2022/01/05 04:07:55;;;;;;;0.93;0.50;;;;;;;-141.59;100.00;61776.25;5059803;28;20233;-88
2022/01/05 04:10:22;;;;;;;0.67;0.67;;;;;;;-141.59;100.00;61776.25;5030159;28;20237;-88
2022/01/05 04:12:50;;;;;;;0.50;0.50;;;;;;;-141.59;100.00;61776.25;5031345;28;20201;-88
2022/01/05 04:15:20;;;;;;;0.50;0.50;;;;;;;-141.59;100.00;61776.25;5057862;28;20205;-88
2022/01/05 04:17:50;;;;;;;0.60;0.60;;;;;;;-141.59;100.00;61776.25;5029854;28;20210;-89
2022/01/05 04:20:20;;;;;;;1.10;0.60;;;;;;;-141.59;100.00;61776.25;5032560;28;20194;-88
2022/01/05 04:22:48;;;;;;;0.50;0.50;;;;;;;-141.59;100.00;61776.25;5036712;28;20211;-88
2022/01/05 04:25:20;;;;;;;1.53;0.90;;;;;;;-141.59;100.00;61776.25;5033893;28;20203;-87
2022/01/05 04:27:47;;;;;;;0.80;0.80;;;;;;;-141.59;100.00;61776.25;5037945;28;20222;-88
2022/01/05 04:30:19;;;;;;;0.70;0.70;;;;;;;-141.59;100.00;61776.25;5037786;28;20218;-88
2022/01/05 04:32:49;;;;;;;0.57;0.57;;;;;;;-141.59;100.00;61776.25;5062694;28;20267;-88
2022/01/05 04:35:16;;;;;;;0.60;0.60;;;;;;;-141.59;100.00;61776.25;5045788;28;20220;-87
2022/01/05 04:37:52;;;;;;;0.50;0.50;;;;;;;-141.59;100.00;61776.25;5059562;28;20238;-88
2022/01/05 04:40:21;;;;;;;0.60;0.60;;;;;;;-141.59;100.00;61776.25;5034893;28;20213;-88
2022/01/05 04:43:00;;;;;;;0.97;0.43;;;;;;;-141.59;100.00;61776.25;5060863;28;20203;-88
2022/01/05 04:45:27;;;;;;;0.60;0.60;;;;;;;-141.59;100.00;61776.25;5027360;28;20221;-88
2022/01/05 04:47:54;;;;;;;0.63;0.60;;;;;;;-141.59;100.00;61776.25;5045228;28;20238;-88
2022/01/05 04:50:22;;;;;;;0.60;0.60;;;;;;;-141.59;100.00;61776.25;5034662;28;20207;-88
2022/01/05 04:52:50;;;;;;;0.60;0.60;;;;;;;-141.59;100.00;61776.25;5060625;28;20280;-88
2022/01/05 04:55:17;;;;;;;0.70;0.63;;;;;;;-141.59;100.00;61776.25;5039115;28;20279;-88
2022/01/05 04:57:44;;;;;;;0.60;0.60;;;;;;;-141.59;100.00;61776.25;5028468;28;20217;-88
2022/01/05 05:00:12;;;;;;;0.70;0.70;;;;;;;-141.59;100.00;61776.25;5061310;28;20294;-88
2022/01/05 05:02:39;;;;;;;0.60;0.60;;;;;;;-141.59;100.00;61776.25;5028483;28;20301;-88
2022/01/05 05:05:07;;;;;;;0.60;0.60;;;;;;;-141.59;100.00;61776.25;5025117;28;20195;-88
2022/01/05 05:07:34;;;;;;;2.30;1.50;;;;;;;-141.59;100.00;61776.25;5027592;28;20298;-87
2022/01/05 05:10:03;;;;;;;3.00;1.90;;;;;;;-141.59;100.00;61776.25;5028312;28;20198;-88
2022/01/05 05:12:30;;;;;;;1.90;1.37;;;;;;;-141.59;100.00;61776.25;5024954;28;20221;-89
2022/01/05 05:14:58;;;;;;;2.40;0.80;;;;;;;-141.59;100.00;61776.25;5057717;28;20229;-89
2022/01/05 05:17:25;;;;;;;0.97;0.70;;;;;;;-141.59;100.00;61776.25;5060372;28;20229;-88
2022/01/05 05:19:52;;;;;;;1.33;0.80;;;;;;;-141.59;100.00;61776.25;5024916;28;20248;-88
2022/01/05 05:22:20;;;;;;;0.60;0.60;;;;;;;-141.59;100.00;61776.25;5026367;28;20250;-88
2022/01/05 05:24:47;;;;;;;0.50;0.50;;;;;;;-141.59;100.00;61776.25;5040940;28;20206;-87
2022/01/05 05:27:15;;;;;;;0.50;0.50;;;;;;;-141.59;100.00;61776.25;5043547;28;20215;-88
2022/01/05 05:29:43;;;;;;;0.60;0.60;;;;;;;-141.59;100.00;61776.25;5041146;28;20267;-87
2022/01/05 05:32:10;;;;;;;1.00;0.90;;;;;;;-141.59;100.00;61776.25;5027593;28;20221;-86
2022/01/05 05:34:37;;;;;;;0.80;0.80;;;;;;;-141.59;100.00;61776.25;5018291;28;20210;-87
2022/01/05 05:37:05;;;;;;;1.60;0.80;;;;;;;-141.59;100.00;61776.25;5060996;28;20233;-87
2022/01/05 05:39:33;;;;;;;0.90;0.90;;;;;;;-141.59;100.00;61776.25;5026623;28;20245;-87
2022/01/05 05:42:00;;;;;;;1.67;1.40;;;;;;;-141.59;100.00;61776.25;5026286;28;20221;-87
2022/01/05 05:44:29;;;;;;;2.23;1.37;;;;;;;-141.59;100.00;61776.25;5046015;28;20210;-87
2022/01/05 05:46:56;;;;;;;5.63;2.73;;;;;;;-141.59;100.00;61776.25;5054209;28;20252;-87
2022/01/05 05:49:23;;;;;;;6.50;3.13;;;;;;;-141.59;100.00;61776.25;5062665;28;20267;-87
2022/01/05 05:51:50;;;;;;;4.97;2.63;;;;;;;-141.59;100.00;61776.25;5041770;28;20227;-87
2022/01/05 05:54:17;;;;;;;3.90;2.27;;;;;;;-141.59;100.00;61776.25;5023827;28;20214;-87
2022/01/05 05:56:45;;;;;;;1.57;1.10;;;;;;;-141.59;100.00;61776.25;5053022;28;20374;-87
2022/01/05 05:59:12;;;;;;;2.80;1.70;;;;;;;-141.59;100.00;61776.25;5026467;28;20218;-87
2022/01/05 06:01:40;;;;;;;5.83;2.83;;;;;;;-141.59;100.00;61776.25;5061024;28;20225;-88
2022/01/05 06:04:07;;;;;;;10.60;4.60;;;;;;;-141.59;100.00;61776.25;5051876;28;20209;-87
2022/01/05 06:06:35;;;;;;;9.87;3.90;;;;;;;-141.59;100.00;61776.25;5018993;28;20267;-87
2022/01/05 06:09:02;;;;;;;10.07;3.97;;;;;;;-141.59;100.00;61776.25;5055561;28;20297;-87
2022/01/05 06:11:49;;;;;;;8.40;4.30;;;;;;;-141.59;100.00;61776.25;5041769;28;20202;-87
2022/01/05 06:14:18;;;;;;;4.77;2.73;;;;;;;-141.59;100.00;61776.25;5059133;28;20296;-88
2022/01/05 06:16:49;;;;;;;3.77;2.50;;;;;;;-141.59;100.00;61776.25;5039876;28;20247;-87
2022/01/05 06:19:16;;;;;;;5.40;2.80;;;;;;;-141.59;100.00;61776.25;5047426;28;20206;-87
2022/01/05 06:22:10;;;;;;;6.83;2.87;;;;;;;-141.59;100.00;61776.25;5024985;28;20214;-87
2022/01/05 06:24:42;;;;;;;3.80;2.50;;;;;;;-141.59;100.00;61776.25;5038374;28;20233;-87
2022/01/05 06:27:09;;;;;;;2.93;2.13;;;;;;;-141.59;100.00;61776.25;5030633;28;20237;-87
2022/01/05 06:29:37;;;;;;;4.00;1.97;;;;;;;-141.59;100.00;61776.25;5064504;28;20332;-87
2022/01/05 06:32:14;;;;;;;3.20;1.63;;;;;;;-141.59;100.00;61776.25;5025647;28;20224;-87
2022/01/05 06:34:42;;;;;;;2.93;1.70;;;;;;;-141.59;100.00;61776.25;5034016;28;20206;-87
2022/01/05 06:37:09;;;;;;;1.70;1.60;;;;;;;-141.59;100.00;61776.25;5032578;28;20206;-87
2022/01/05 06:39:36;;;;;;;2.90;1.70;;;;;;;-141.59;100.00;61776.25;5063798;28;20245;-87
2022/01/05 06:42:04;;;;;;;2.87;2.17;;;;;;;-141.59;100.00;61776.25;5033311;28;20205;-87
2022/01/05 06:44:31;;;;;;;2.83;2.10;;;;;;;-141.59;100.00;61776.25;5048439;28;20216;-87
2022/01/05 06:46:58;;;;;;;2.23;1.90;;;;;;;-141.59;100.00;61776.25;5049210;28;20233;-87
2022/01/05 06:49:27;;;;;;;3.00;2.50;;;;;;;-141.59;100.00;61776.25;5041283;28;20232;-87
2022/01/05 06:51:54;;;;;;;2.73;2.33;;;;;;;-141.59;100.00;61776.25;5031786;28;20214;-87
2022/01/05 06:54:22;;;;;;;3.43;2.40;;;;;;;-141.59;100.00;61776.25;5040635;28;20204;-87
2022/01/05 06:56:50;;;;;;;4.83;2.30;;;;;;;-141.59;100.00;61776.25;5062228;28;20243;-87
2022/01/05 06:59:17;;;;;;;3.33;2.30;;;;;;;-141.59;100.00;61776.25;5025831;28;20210;-87
2022/01/05 07:01:44;;;;;;;2.47;2.03;;;;;;;-141.59;100.00;61776.25;5059874;28;20229;-87
2022/01/05 07:04:11;;;;;;;4.00;2.10;;;;;;;-141.59;100.00;61776.25;5055765;28;20214;-87
2022/01/05 07:06:40;;;;;;;2.67;2.27;;;;;;;-141.59;100.00;61776.25;5055996;28;20203;-86
2022/01/05 07:09:07;;;;;;;3.60;2.90;;;;;;;-141.59;100.00;61776.25;5056728;28;20231;-88
2022/01/05 07:11:35;;;;;;;3.50;2.60;;;;;;;-141.59;100.00;61776.25;5068809;28;20241;-87
2022/01/05 07:14:02;;;;;;;3.23;2.37;;;;;;;-141.59;100.00;61776.25;5031820;28;20265;-87
2022/01/05 07:16:30;;;;;;;3.83;2.47;;;;;;;-141.59;100.00;61776.25;5031364;28;20274;-87
2022/01/05 07:18:57;;;;;;;4.00;2.80;;;;;;;-141.59;100.00;61776.25;5060519;28;20217;-87
2022/01/05 07:21:24;;;;;;;4.67;2.87;;;;;;;-141.59;100.00;61776.25;5062687;28;20198;-86
2022/01/05 07:23:54;;;;;;;8.57;3.37;;;;;;;-141.59;100.00;61776.25;5034848;28;20208;-87
2022/01/05 07:26:21;;;;;;;8.00;4.50;;;;;;;-141.59;100.00;61776.25;5036297;28;20241;-86
2022/01/05 07:28:48;;;;;;;10.43;5.40;;;;;;;-141.59;100.00;61776.25;5043740;28;20316;-86
2022/01/05 07:31:15;;;;;;;5.93;3.83;;;;;;;-141.59;100.00;61776.25;5039726;28;20209;-87
2022/01/05 07:33:42;;;;;;;5.93;3.50;;;;;;;-141.59;100.00;61776.25;5028011;28;20214;-87
2022/01/05 07:36:10;;;;;;;4.73;2.70;;;;;;;-141.59;100.00;61776.25;5034489;28;20226;-87
2022/01/05 07:38:37;;;;;;;3.63;2.90;;;;;;;-141.59;100.00;61776.25;5035990;28;20248;-87
2022/01/05 07:41:06;;;;;;;4.33;3.07;;;;;;;-141.59;100.00;61776.25;5026920;28;20208;-87
2022/01/05 07:43:33;;;;;;;3.83;2.87;;;;;;;-141.59;100.00;61776.25;5028338;28;20240;-86
2022/01/05 07:46:01;;;;;;;4.60;2.30;;;;;;;-141.59;100.00;61776.25;5062654;28;20225;-87
2022/01/05 07:48:28;;;;;;;4.33;2.03;;;;;;;-141.59;100.00;61776.25;5026282;28;20222;-87
2022/01/05 07:50:55;;;;;;;2.87;2.20;;;;;;;-141.59;100.00;61776.25;5059103;28;20238;-87
2022/01/05 07:53:23;;;;;;;3.80;2.10;;;;;;;-141.59;100.00;61776.25;5022443;28;20276;-87
2022/01/05 07:55:50;;;;;;;2.30;1.60;;;;;;;-141.59;100.00;61776.25;5028699;28;20234;-87
2022/01/05 07:58:32;;;;;;;2.70;2.17;;;;;;;-141.59;100.00;61776.25;5038236;28;20270;-88
2022/01/05 08:01:00;;;;;;;4.80;3.07;;;;;;;-141.59;100.00;61776.25;5031585;28;20233;-88
2022/01/05 08:03:28;;;;;;;4.57;2.47;;;;;;;-141.59;100.00;61776.25;5023031;28;20570;-87
2022/01/05 08:05:55;;;;;;;2.87;2.20;;;;;;;-141.59;100.00;61776.25;5047891;28;20203;-87
2022/01/05 08:08:22;;;;;;;2.90;2.30;;;;;;;-141.59;100.00;61776.25;5017326;28;20214;-86
2022/01/05 08:10:49;;;;;;;3.43;2.67;;;;;;;-141.59;100.00;61776.25;5031911;28;20257;-87
2022/01/05 08:13:18;;;;;;;3.30;2.20;;;;;;;-141.59;100.00;61776.25;5055058;28;20210;-87
2022/01/05 08:15:45;;;;;;;3.37;2.13;;;;;;;-141.59;100.00;61776.25;5031402;28;20230;-87
2022/01/05 08:18:15;;;;;;;3.80;2.07;;;;;;;-141.59;100.00;61776.25;5055820;28;20206;-87
2022/01/05 08:20:50;;;;;;;4.87;3.03;;;;;;;-141.59;100.00;61776.25;5057978;28;20275;-87
2022/01/05 08:23:22;;;;;;;3.30;2.73;;;;;;;-141.59;100.00;61776.25;5023128;28;20202;-88
2022/01/05 08:26:01;;;;;;;5.37;3.17;;;;;;;-141.59;100.00;61776.25;5034346;28;20198;-87
2022/01/05 08:28:32;;;;;;;4.13;2.90;;;;;;;-141.59;100.00;61776.25;5022151;28;20297;-88
2022/01/05 08:31:00;;;;;;;21.43;14.50;;;;;;;-141.59;100.00;61776.25;5024477;28;20202;-87
2022/01/05 08:33:32;;;;;;;1.40;1.20;;;;;;;-141.59;100.00;61776.25;5026175;28;20213;-87
2022/01/05 08:36:02;;;;;;;1.23;1.00;;;;;;;-141.59;100.00;61776.25;5024503;28;20226;-88
2022/01/05 08:38:32;;;;;;;0.87;0.77;;;;;;;-141.59;100.00;61776.25;5048903;28;20326;-86
2022/01/05 08:40:59;;;;;;;0.60;0.60;;;;;;;-141.59;100.00;61776.25;5054119;28;20217;-87
2022/01/05 08:43:31;;;;;;;0.50;0.50;;;;;;;-141.59;100.00;61776.25;5055808;28;20590;-87
2022/01/05 08:46:01;;;;;;;0.67;0.67;;;;;;;-141.59;100.00;61776.25;5019453;28;20229;-88
2022/01/05 08:48:28;;;;;;;0.50;0.50;;;;;;;-141.59;100.00;61776.25;5030007;28;20218;-88
2022/01/05 08:50:56;;;;;;;0.50;0.50;;;;;;;-141.59;100.00;61776.25;5026113;28;20198;-87
2022/01/05 08:53:25;;;;;;;0.50;0.50;;;;;;;-141.59;100.00;61776.25;5021652;28;20202;-88
2022/01/05 08:55:52;;;;;;;0.53;0.53;;;;;;;-141.59;100.00;61776.25;5052298;28;20210;-87
2022/01/05 08:58:21;;;;;;;0.80;0.70;;;;;;;-141.59;100.00;61776.25;5046979;28;20190;-87
2022/01/05 09:00:50;;;;;;;0.50;0.50;;;;;;;-141.59;100.00;61776.25;5050081;28;20218;-87
2022/01/05 09:03:18;;;;;;;0.50;0.50;;;;;;;-141.59;100.00;61776.25;5053238;28;20214;-87
2022/01/05 09:05:46;;;;;;;2.00;0.60;;;;;;;-141.59;100.00;61776.25;5028369;28;20194;-87
2022/01/05 09:08:14;;;;;;;0.50;0.50;;;;;;;-141.59;100.00;61776.25;5021544;28;20213;-88
2022/01/05 09:10:41;;;;;;;0.50;0.50;;;;;;;-141.59;100.00;61776.25;5019424;28;20237;-88
2022/01/05 09:13:12;;;;;;;0.60;0.60;;;;;;;-141.59;100.00;61776.25;5027331;28;20217;-87
2022/01/05 09:15:41;;;;;;;0.60;0.60;;;;;;;-141.59;100.00;61776.25;5060088;28;20283;-87
2022/01/05 09:18:09;;;;;;;0.50;0.50;;;;;;;-141.59;100.00;61776.25;5022233;28;20248;-87
2022/01/05 09:20:37;;;;;;;0.60;0.60;;;;;;;-141.59;100.00;61776.25;5052685;28;20219;-87
2022/01/05 09:23:04;;;;;;;0.60;0.60;;;;;;;-141.59;100.00;61776.25;5025161;28;20225;-87
2022/01/05 09:25:31;;;;;;;0.90;0.80;;;;;;;-141.59;100.00;61776.25;5027309;28;20221;-87
2022/01/05 09:27:59;;;;;;;0.60;0.60;;;;;;;-141.59;100.00;61776.25;5049806;28;20286;-88
2022/01/05 09:30:27;;;;;;;0.60;0.53;;;;;;;-141.59;100.00;61776.25;5054579;28;20232;-88
2022/01/05 09:32:54;;;;;;;0.60;0.60;;;;;;;-141.59;100.00;61776.25;5055293;28;20217;-87
2022/01/05 09:35:24;;;;;;;0.50;0.50;;;;;;;-141.59;100.00;61776.25;5039956;28;20221;-88
2022/01/05 09:37:55;;;;;;;0.53;0.53;;;;;;;-141.59;100.00;61776.25;5012277;28;20226;-87
2022/01/05 09:43:09;;;;;;;0.73;0.73;;;;;;;-141.59;100.00;61776.25;5044074;28;20204;-88
2022/01/05 09:45:41;;;;;;;0.60;0.60;;;;;;;-141.59;100.00;61776.25;5056939;28;20212;-87
2022/01/05 09:48:36;;;;;;;0.80;0.80;;;;;;;-141.59;100.00;61776.25;5043137;28;20210;-87
2022/01/05 09:51:09;;;;;;;0.80;0.80;;;;;;;-141.59;100.00;61776.25;5029614;28;20251;-87
2022/01/05 09:53:38;;;;;;;0.60;0.60;;;;;;;-141.59;100.00;61776.25;5036855;28;20209;-87
2022/01/05 09:56:06;;;;;;;0.70;0.70;;;;;;;-141.59;100.00;61776.25;5017708;28;20206;-87
2022/01/05 09:58:35;;;;;;;1.17;1.07;;;;;;;-141.59;100.00;61776.25;5027016;28;20294;-87
2022/01/05 10:01:03;;;;;;;1.10;1.00;;;;;;;-141.59;100.00;61776.25;5043473;28;20225;-87
2022/01/05 10:03:30;;;;;;;0.80;0.80;;;;;;;-141.59;100.00;61776.25;5023600;28;20218;-88
2022/01/05 10:05:57;;;;;;;0.70;0.70;;;;;;;-141.59;100.00;61776.25;5061942;28;20294;-87
2022/01/05 10:08:25;;;;;;;0.80;0.80;;;;;;;-141.59;100.00;61776.25;5058506;28;20225;-87
2022/01/05 10:11:04;;;;;;;0.70;0.70;;;;;;;-141.59;100.00;61776.25;5032310;28;20256;-88
2022/01/05 10:13:31;;;;;;;0.80;0.80;;;;;;;-141.59;100.00;61776.25;5039543;28;20201;-87
2022/01/05 10:15:58;;;;;;;1.53;0.87;;;;;;;-141.59;100.00;61776.25;5027433;28;20277;-87
2022/01/05 10:18:28;;;;;;;0.70;0.70;;;;;;;-141.59;100.00;61776.25;5036266;28;20298;-88
2022/01/05 10:21:01;;;;;;;2.33;0.93;;;;;;;-141.59;100.00;61776.25;5012947;28;20276;-88
2022/01/05 10:23:38;;;;;;;0.70;0.70;;;;;;;-141.59;100.00;61776.25;5026591;28;20226;-87
2022/01/05 10:26:29;;;;;;;2.33;1.00;;;;;;;-141.59;100.00;61776.25;5044000;28;20232;-88
2022/01/05 10:29:00;;;;;;;1.23;1.10;;;;;;;-141.59;100.00;61776.25;5016029;28;20271;-88
2022/01/05 10:31:32;;;;;;;0.93;0.93;;;;;;;-141.59;100.00;61776.25;5037747;28;20275;-87
2022/01/05 10:34:00;;;;;;;1.57;1.00;;;;;;;-141.59;100.00;61776.25;5033312;28;20214;-87
2022/01/05 10:36:45;;;;;;;1.43;1.30;;;;;;;-141.59;100.00;61776.25;5036864;28;20233;-87
2022/01/05 10:39:15;;;;;;;2.23;1.10;;;;;;;-141.59;100.00;61776.25;5056841;28;20238;-87
2022/01/05 10:41:43;;;;;;;0.83;0.83;;;;;;;-141.59;100.00;61776.25;5041765;28;20207;-87
2022/01/05 10:44:17;;;;;;;0.90;0.90;;;;;;;-141.59;100.00;61776.25;5025227;28;20209;-87
2022/01/05 10:46:47;;;;;;;1.10;1.00;;;;;;;-141.59;100.00;61776.25;5040812;28;20338;-88
2022/01/05 10:49:34;;;;;;;1.10;1.00;;;;;;;-141.59;100.00;61776.25;5040786;28;20256;-88
2022/01/05 10:52:19;;;;;;;3.63;1.10;;;;;;;-141.59;100.00;61776.25;5046966;28;20224;-88
2022/01/05 10:54:48;;;;;;;1.17;0.90;;;;;;;-141.59;100.00;61776.25;5025770;28;20206;-87
2022/01/05 10:57:17;;;;;;;0.70;0.70;;;;;;;-141.59;100.00;61776.25;5026175;28;20202;-87
2022/01/05 10:59:45;;;;;;;2.03;1.10;;;;;;;-141.59;100.00;61776.25;5019234;28;20203;-88
2022/01/05 11:02:23;;;;;;;0.83;0.70;;;;;;;-141.59;100.00;61776.25;5052377;28;20233;-87
2022/01/05 11:04:51;;;;;;;1.27;0.90;;;;;;;-141.59;100.00;61776.25;5052836;28;20209;-87
2022/01/05 11:07:22;;;;;;;1.40;0.90;;;;;;;-141.59;100.00;61776.25;5034126;28;20621;-88
2022/01/05 11:09:56;;;;;;;2.07;1.20;;;;;;;-141.59;100.00;61776.25;5056075;28;20316;-88
2022/01/05 11:12:33;;;;;;;1.23;0.87;;;;;;;-141.59;100.00;61776.25;5048281;28;20213;-88
2022/01/05 11:15:42;;;;;;;1.30;1.00;;;;;;;-141.59;100.00;61776.25;5029691;28;20205;-88
2022/01/05 11:18:18;;;;;;;1.00;0.90;;;;;;;-141.59;100.00;61776.25;4984981;28;20208;-89
2022/01/05 11:20:51;;;;;;;1.17;1.00;;;;;;;-141.59;100.00;61776.25;4990265;28;20215;-88
2022/01/05 11:23:19;;;;;;;1.20;1.00;;;;;;;-141.59;100.00;61776.25;5012772;28;20205;-89